Time;durP1;ratioP1;P1;durP2;ratioP2;P2;SDS_P1;SDS_P2;PMS_P1;PMS_P2;Temp;Humidity;BMP_temperature;BMP_pressure;BME280_temperature;BME280_humidity;BME280_pressure;Samples;Min_cycle;Max_cycle;Signal;HPM_P1;HPM_P2
2022/02/26 00:00:03;;;;;;;40.53;32.88;;;;;;;;;;5017439;28;20206;-93
2022/02/26 00:02:31;;;;;;;36.70;32.75;;;;;;;;;;5017877;28;20210;-92
2022/02/26 00:04:58;;;;;;;47.58;31.52;;;;;;;;;;5017394;28;20257;-94
2022/02/26 00:07:27;;;;;;;37.38;32.15;;;;;;;;;;5017590;28;20260;-93
2022/02/26 00:09:54;;;;;;;40.63;33.53;;;;;;;;;;5017480;28;20225;-94
2022/02/26 00:12:21;;;;;;;36.38;32.67;;;;;;;;;;5017545;28;20210;-93
2022/02/26 00:14:49;;;;;;;37.25;33.58;;;;;;;;;;5000195;28;20202;-93
2022/02/26 00:17:17;;;;;;;37.67;32.05;;;;;;;;;;5017551;28;20543;-92
2022/02/26 00:19:44;;;;;;;35.63;30.40;;;;;;;;;;5017401;28;20206;-93
2022/02/26 00:22:12;;;;;;;41.92;33.65;;;;;;;;;;5017512;28;20512;-92
2022/02/26 00:24:41;;;;;;;34.20;30.50;;;;;;;;;;5017376;28;20214;-92
2022/02/26 00:27:08;;;;;;;32.97;29.63;;;;;;;;;;5017148;28;20195;-92
2022/02/26 00:29:36;;;;;;;31.85;28.02;;;;;;;;;;5017019;28;20213;-92
2022/02/26 00:32:05;;;;;;;31.83;28.48;;;;;;;;;;5017304;28;20237;-91
2022/02/26 00:34:33;;;;;;;31.67;28.27;;;;;;;;;;5017476;28;20600;-92
2022/02/26 00:37:00;;;;;;;47.20;31.05;;;;;;;;;;5016894;28;20206;-91
2022/02/26 00:39:27;;;;;;;31.90;28.63;;;;;;;;;;5016599;28;20230;-91
2022/02/26 00:41:56;;;;;;;40.03;29.75;;;;;;;;;;5017033;28;20221;-92
2022/02/26 00:44:23;;;;;;;31.75;28.45;;;;;;;;;;5016789;28;20272;-92
2022/02/26 00:46:51;;;;;;;38.35;28.40;;;;;;;;;;5017116;28;20272;-92
2022/02/26 00:52:03;;;;;;;31.33;28.13;;;;;;;;;;5016695;28;20608;-92
2022/02/26 00:54:31;;;;;;;33.45;30.23;;;;;;;;;;5016213;28;20614;-92
2022/02/26 00:56:59;;;;;;;31.00;28.00;;;;;;;;;;5017093;28;20206;-92
2022/02/26 00:59:27;;;;;;;31.45;28.10;;;;;;;;;;5016581;28;20202;-92
2022/02/26 01:01:54;;;;;;;39.63;28.02;;;;;;;;;;5016505;28;20288;-92
2022/02/26 01:04:21;;;;;;;30.35;27.00;;;;;;;;;;5016044;28;20202;-92
2022/02/26 01:06:49;;;;;;;33.22;25.73;;;;;;;;;;5016711;28;20201;-92
2022/02/26 01:09:17;;;;;;;36.72;26.67;;;;;;;;;;4998781;28;20260;-94
2022/02/26 01:11:45;;;;;;;39.08;27.90;;;;;;;;;;5016406;28;20206;-94
2022/02/26 01:14:14;;;;;;;36.95;28.15;;;;;;;;;;5016732;28;20200;-94
2022/02/26 01:16:41;;;;;;;29.98;26.70;;;;;;;;;;5016358;28;20256;-93
2022/02/26 01:19:09;;;;;;;36.88;27.40;;;;;;;;;;5016301;28;20214;-93
2022/02/26 01:21:36;;;;;;;36.05;28.23;;;;;;;;;;4998612;28;20252;-94
2022/02/26 01:24:04;;;;;;;32.97;26.40;;;;;;;;;;5016124;28;20194;-93
2022/02/26 01:26:32;;;;;;;29.63;27.13;;;;;;;;;;5016234;28;20221;-93
2022/02/26 01:28:59;;;;;;;43.63;28.33;;;;;;;;;;4982460;28;20635;-93
2022/02/26 01:31:28;;;;;;;30.52;27.45;;;;;;;;;;5016372;28;20210;-93
2022/02/26 01:33:56;;;;;;;31.13;28.13;;;;;;;;;;5016138;28;20237;-93
2022/02/26 01:36:23;;;;;;;31.33;28.10;;;;;;;;;;4998924;28;20548;-94
2022/02/26 01:38:51;;;;;;;34.08;27.60;;;;;;;;;;5015572;28;20292;-94
2022/02/26 01:41:18;;;;;;;32.05;28.40;;;;;;;;;;5015719;28;20206;-94
2022/02/26 01:43:46;;;;;;;34.38;29.30;;;;;;;;;;5016102;28;20198;-94
2022/02/26 01:46:13;;;;;;;36.95;27.83;;;;;;;;;;5015986;28;20214;-94
2022/02/26 01:48:42;;;;;;;33.10;28.60;;;;;;;;;;5015407;28;20671;-93
2022/02/26 01:51:10;;;;;;;43.65;28.90;;;;;;;;;;5015703;28;20217;-94
2022/02/26 01:53:38;;;;;;;35.97;29.13;;;;;;;;;;5015668;28;20313;-94
2022/02/26 01:56:07;;;;;;;41.08;29.75;;;;;;;;;;5015718;28;20209;-93
2022/02/26 01:58:34;;;;;;;42.40;28.98;;;;;;;;;;5015622;28;20209;-92
2022/02/26 02:01:02;;;;;;;42.53;28.15;;;;;;;;;;5015532;28;20205;-93
2022/02/26 02:03:29;;;;;;;35.22;27.25;;;;;;;;;;5015405;28;20197;-93
2022/02/26 02:05:59;;;;;;;31.98;28.88;;;;;;;;;;5015140;28;20761;-93
2022/02/26 02:08:27;;;;;;;34.97;29.70;;;;;;;;;;5015298;28;20222;-93
2022/02/26 02:10:56;;;;;;;36.17;30.60;;;;;;;;;;5015237;28;20197;-94
2022/02/26 02:13:23;;;;;;;36.60;29.95;;;;;;;;;;5015400;28;20202;-94
2022/02/26 02:15:51;;;;;;;37.90;31.50;;;;;;;;;;5014619;28;20193;-93
2022/02/26 02:18:18;;;;;;;43.88;29.88;;;;;;;;;;5014922;28;20194;-94
2022/02/26 02:20:46;;;;;;;33.85;28.90;;;;;;;;;;5014977;28;20206;-93
2022/02/26 02:23:15;;;;;;;39.33;28.98;;;;;;;;;;5015607;28;20197;-93
2022/02/26 02:25:43;;;;;;;34.95;30.85;;;;;;;;;;5014936;28;20221;-93
2022/02/26 02:28:11;;;;;;;29.50;26.95;;;;;;;;;;5014892;28;20194;-93
2022/02/26 02:30:39;;;;;;;36.70;29.60;;;;;;;;;;5015112;28;20198;-93
2022/02/26 02:33:07;;;;;;;34.90;29.90;;;;;;;;;;5014997;28;20594;-93
2022/02/26 02:35:35;;;;;;;35.50;31.75;;;;;;;;;;4997311;28;20210;-92
2022/02/26 02:38:04;;;;;;;34.10;29.83;;;;;;;;;;5014491;28;20280;-93
2022/02/26 02:40:33;;;;;;;45.72;31.10;;;;;;;;;;5014449;28;20234;-92
2022/02/26 02:43:00;;;;;;;32.42;29.27;;;;;;;;;;4997280;28;20202;-93
2022/02/26 02:45:28;;;;;;;37.10;31.70;;;;;;;;;;4997366;28;20222;-93
2022/02/26 02:47:55;;;;;;;36.60;30.40;;;;;;;;;;4997306;28;20209;-93
2022/02/26 02:50:23;;;;;;;37.45;30.92;;;;;;;;;;4997203;28;20672;-93
2022/02/26 02:52:51;;;;;;;33.30;29.83;;;;;;;;;;5014699;28;20233;-93
2022/02/26 02:55:20;;;;;;;34.15;30.48;;;;;;;;;;5014485;28;20751;-93
2022/02/26 02:57:50;;;;;;;40.75;30.42;;;;;;;;;;5014630;28;20209;-93
2022/02/26 03:00:17;;;;;;;36.28;30.35;;;;;;;;;;5014647;28;20610;-93
2022/02/26 03:02:45;;;;;;;38.08;31.05;;;;;;;;;;5013999;28;20201;-93
2022/02/26 03:05:14;;;;;;;37.42;30.92;;;;;;;;;;5013586;28;20720;-93
2022/02/26 03:07:42;;;;;;;34.15;30.45;;;;;;;;;;4996105;28;20293;-92
2022/02/26 03:10:10;;;;;;;58.95;31.55;;;;;;;;;;4996713;28;20201;-92
2022/02/26 03:12:38;;;;;;;43.58;30.80;;;;;;;;;;5014303;28;20284;-93
2022/02/26 03:15:08;;;;;;;49.55;32.58;;;;;;;;;;5014494;28;20206;-93
2022/02/26 03:17:35;;;;;;;43.13;29.90;;;;;;;;;;5014611;28;20191;-93
2022/02/26 03:20:03;;;;;;;55.50;33.13;;;;;;;;;;5014256;28;20209;-93
2022/02/26 03:22:30;;;;;;;65.38;34.58;;;;;;;;;;5014351;28;20206;-92
2022/02/26 03:24:57;;;;;;;70.82;33.70;;;;;;;;;;5014560;28;20214;-93
2022/02/26 03:27:25;;;;;;;66.30;31.52;;;;;;;;;;5016474;28;20210;-93
2022/02/26 03:29:52;;;;;;;58.15;33.63;;;;;;;;;;5018054;28;20614;-93
2022/02/26 03:32:21;;;;;;;63.78;34.95;;;;;;;;;;5000815;28;20202;-92
2022/02/26 03:34:50;;;;;;;70.28;35.97;;;;;;;;;;5018260;28;20198;-92
2022/02/26 03:37:17;;;;;;;79.32;37.10;;;;;;;;;;5018402;28;20230;-92
2022/02/26 03:39:46;;;;;;;81.20;33.70;;;;;;;;;;5000652;28;20248;-92
2022/02/26 03:42:13;;;;;;;70.47;34.92;;;;;;;;;;5017830;28;20186;-92
2022/02/26 03:44:42;;;;;;;80.55;35.28;;;;;;;;;;5018086;28;20190;-93
2022/02/26 03:47:10;;;;;;;80.35;34.03;;;;;;;;;;5017718;28;20260;-93
2022/02/26 03:49:39;;;;;;;86.40;36.88;;;;;;;;;;5017891;28;20232;-93
2022/02/26 03:52:07;;;;;;;59.17;33.10;;;;;;;;;;5017924;28;20202;-93
2022/02/26 03:54:34;;;;;;;59.63;34.75;;;;;;;;;;5017897;28;20190;-92
2022/02/26 03:57:01;;;;;;;67.68;36.00;;;;;;;;;;5017890;28;20198;-92
2022/02/26 03:59:29;;;;;;;47.92;31.25;;;;;;;;;;5017837;28;20213;-93
2022/02/26 04:01:56;;;;;;;51.28;32.70;;;;;;;;;;5017813;28;20206;-92
2022/02/26 04:04:23;;;;;;;51.17;33.80;;;;;;;;;;5017777;28;20186;-92
2022/02/26 04:06:54;;;;;;;59.80;34.55;;;;;;;;;;4999980;28;20234;-93
2022/02/26 04:09:22;;;;;;;78.00;31.60;;;;;;;;;;5017700;28;20191;-92
2022/02/26 04:11:49;;;;;;;67.18;32.33;;;;;;;;;;5017289;28;20195;-92
2022/02/26 04:14:17;;;;;;;44.78;32.70;;;;;;;;;;5017555;28;20190;-92
2022/02/26 04:16:44;;;;;;;52.70;33.20;;;;;;;;;;5017169;28;20191;-92
2022/02/26 04:19:11;;;;;;;53.08;33.42;;;;;;;;;;5017428;28;20194;-93
2022/02/26 04:21:39;;;;;;;72.70;35.63;;;;;;;;;;5017480;28;20647;-93
2022/02/26 04:24:08;;;;;;;49.70;34.03;;;;;;;;;;5017250;28;20198;-93
2022/02/26 04:26:35;;;;;;;52.92;32.15;;;;;;;;;;5016975;28;20230;-92
2022/02/26 04:29:03;;;;;;;39.38;32.55;;;;;;;;;;5017461;28;20201;-92
2022/02/26 04:31:31;;;;;;;46.97;33.17;;;;;;;;;;5017485;28;20191;-93
2022/02/26 04:33:59;;;;;;;55.88;32.72;;;;;;;;;;5017146;28;20206;-92
2022/02/26 04:36:26;;;;;;;57.72;35.28;;;;;;;;;;5017068;28;20209;-93
2022/02/26 04:38:53;;;;;;;38.33;30.92;;;;;;;;;;5016056;28;20582;-92
2022/02/26 04:41:22;;;;;;;58.00;32.83;;;;;;;;;;5017278;28;20202;-93
2022/02/26 04:43:49;;;;;;;61.55;31.38;;;;;;;;;;5016514;28;20213;-92
2022/02/26 04:46:17;;;;;;;53.15;33.13;;;;;;;;;;5017065;28;20575;-93
2022/02/26 04:48:44;;;;;;;62.17;33.28;;;;;;;;;;5017077;28;20197;-92
2022/02/26 04:51:12;;;;;;;67.03;34.13;;;;;;;;;;5016934;28;20206;-92
2022/02/26 04:53:40;;;;;;;66.88;35.30;;;;;;;;;;5016716;28;20213;-92
2022/02/26 04:56:08;;;;;;;79.20;35.78;;;;;;;;;;5016842;28;20209;-91
2022/02/26 04:58:37;;;;;;;79.90;35.60;;;;;;;;;;5016616;28;20325;-92
2022/02/26 05:01:05;;;;;;;85.40;37.47;;;;;;;;;;5016513;28;20206;-92
2022/02/26 05:03:33;;;;;;;67.53;36.30;;;;;;;;;;5016975;28;20194;-91
2022/02/26 05:06:00;;;;;;;74.40;35.25;;;;;;;;;;4999202;28;20214;-92
2022/02/26 05:08:28;;;;;;;73.03;38.03;;;;;;;;;;5016972;28;20186;-91
2022/02/26 05:10:55;;;;;;;79.82;36.33;;;;;;;;;;4998903;28;20272;-92
2022/02/26 05:13:23;;;;;;;91.90;38.95;;;;;;;;;;5016703;28;20194;-92
2022/02/26 05:15:52;;;;;;;61.92;35.97;;;;;;;;;;5016399;28;20567;-91
2022/02/26 05:18:19;;;;;;;76.45;39.45;;;;;;;;;;5016410;28;20198;-91
2022/02/26 05:20:47;;;;;;;118.68;42.88;;;;;;;;;;4998947;28;20202;-91
2022/02/26 05:23:14;;;;;;;83.47;37.50;;;;;;;;;;5016192;28;20210;-92
2022/02/26 05:25:41;;;;;;;87.47;38.53;;;;;;;;;;5016162;28;20666;-91
2022/02/26 05:28:09;;;;;;;69.63;39.22;;;;;;;;;;5016061;28;20213;-92
2022/02/26 05:30:36;;;;;;;73.53;36.20;;;;;;;;;;5016228;28;20567;-91
2022/02/26 05:33:05;;;;;;;76.55;38.05;;;;;;;;;;4998520;28;20210;-92
2022/02/26 05:35:33;;;;;;;56.45;33.45;;;;;;;;;;5016250;28;20651;-92
2022/02/26 05:38:00;;;;;;;97.88;39.20;;;;;;;;;;5016098;28;20229;-92
2022/02/26 05:40:27;;;;;;;67.53;36.08;;;;;;;;;;5015346;28;20710;-92
2022/02/26 05:42:55;;;;;;;76.82;37.58;;;;;;;;;;4998658;28;20209;-92
2022/02/26 05:45:22;;;;;;;86.53;37.25;;;;;;;;;;5015882;28;20206;-92
2022/02/26 05:47:50;;;;;;;102.40;41.22;;;;;;;;;;5015405;28;20687;-92
2022/02/26 05:50:18;;;;;;;116.55;41.22;;;;;;;;;;5015573;28;20631;-92
2022/02/26 05:52:46;;;;;;;87.30;39.80;;;;;;;;;;5015672;28;20209;-91
2022/02/26 05:55:13;;;;;;;138.82;41.90;;;;;;;;;;5015833;28;20198;-92
2022/02/26 05:57:40;;;;;;;130.77;41.15;;;;;;;;;;5015702;28;20548;-91
2022/02/26 06:00:09;;;;;;;78.47;36.67;;;;;;;;;;5015648;28;20206;-92
2022/02/26 06:02:36;;;;;;;92.00;40.10;;;;;;;;;;5015471;28;20206;-92
2022/02/26 06:05:04;;;;;;;77.40;37.38;;;;;;;;;;5015268;28;20194;-92
2022/02/26 06:07:32;;;;;;;82.55;38.92;;;;;;;;;;5015367;28;20233;-91
2022/02/26 06:10:00;;;;;;;69.72;38.95;;;;;;;;;;5015592;28;20202;-92
2022/02/26 06:12:27;;;;;;;82.78;40.45;;;;;;;;;;5015572;28;20190;-92
2022/02/26 06:14:55;;;;;;;108.55;40.95;;;;;;;;;;4998033;28;20260;-91
2022/02/26 06:17:22;;;;;;;83.88;41.88;;;;;;;;;;5015667;28;20205;-92
2022/02/26 06:19:49;;;;;;;101.88;41.35;;;;;;;;;;5015051;28;20206;-92
2022/02/26 06:22:17;;;;;;;90.45;43.53;;;;;;;;;;4997661;28;20202;-91
2022/02/26 06:24:46;;;;;;;92.47;43.80;;;;;;;;;;5015142;28;20256;-92
2022/02/26 06:27:13;;;;;;;90.03;42.72;;;;;;;;;;5015348;28;20218;-92
2022/02/26 06:29:41;;;;;;;82.18;45.58;;;;;;;;;;5015167;28;20195;-91
2022/02/26 06:32:08;;;;;;;84.43;42.92;;;;;;;;;;5015175;28;20694;-90
2022/02/26 06:34:36;;;;;;;75.78;39.22;;;;;;;;;;5015491;28;20206;-89
2022/02/26 06:37:04;;;;;;;95.07;43.15;;;;;;;;;;5014819;28;20248;-89
2022/02/26 06:39:31;;;;;;;92.03;39.00;;;;;;;;;;5014541;28;20240;-92
2022/02/26 06:42:01;;;;;;;90.00;41.58;;;;;;;;;;5015112;28;20186;-92
2022/02/26 06:44:28;;;;;;;69.00;40.92;;;;;;;;;;5014878;28;20216;-85
2022/02/26 06:46:55;;;;;;;70.18;42.47;;;;;;;;;;5014862;28;20217;-90
2022/02/26 06:49:23;;;;;;;103.47;43.78;;;;;;;;;;5014607;28;20209;-90
2022/02/26 06:51:50;;;;;;;90.78;48.33;;;;;;;;;;5014506;28;20202;-92
2022/02/26 06:54:18;;;;;;;73.95;40.75;;;;;;;;;;5014693;28;20208;-92
2022/02/26 06:56:45;;;;;;;68.18;42.67;;;;;;;;;;5014771;28;20244;-92
2022/02/26 06:59:14;;;;;;;65.00;39.85;;;;;;;;;;4997245;28;20206;-90
2022/02/26 07:01:45;;;;;;;92.47;42.55;;;;;;;;;;4996546;28;20206;-90
2022/02/26 07:04:12;;;;;;;69.32;42.50;;;;;;;;;;5014628;28;20194;-89
2022/02/26 07:06:43;;;;;;;84.35;45.55;;;;;;;;;;4997076;28;20276;-90
2022/02/26 07:09:10;;;;;;;94.72;44.30;;;;;;;;;;5014261;28;20205;-89
2022/02/26 07:11:38;;;;;;;90.88;43.20;;;;;;;;;;5014447;28;20194;-89
2022/02/26 07:14:05;;;;;;;61.75;44.83;;;;;;;;;;5014642;28;20193;-89
2022/02/26 07:16:34;;;;;;;56.33;43.25;;;;;;;;;;5014590;28;20260;-89
2022/02/26 07:19:02;;;;;;;72.95;43.60;;;;;;;;;;5014173;28;20209;-89
2022/02/26 07:21:29;;;;;;;57.00;39.15;;;;;;;;;;5014359;28;20194;-89
2022/02/26 07:23:58;;;;;;;102.78;45.05;;;;;;;;;;5014441;28;20194;-89
2022/02/26 07:26:25;;;;;;;87.63;44.80;;;;;;;;;;5014404;28;20191;-89
2022/02/26 07:28:53;;;;;;;62.47;42.90;;;;;;;;;;5013850;28;20193;-90
2022/02/26 07:31:23;;;;;;;64.03;42.88;;;;;;;;;;4996581;28;20205;-87
2022/02/26 07:33:52;;;;;;;45.85;41.05;;;;;;;;;;4996433;28;20736;-86
2022/02/26 07:36:20;;;;;;;58.65;44.40;;;;;;;;;;5014344;28;20648;-85
2022/02/26 07:38:47;;;;;;;66.72;40.83;;;;;;;;;;4996814;28;20221;-85
2022/02/26 07:41:15;;;;;;;51.10;41.08;;;;;;;;;;4996286;28;20268;-85
2022/02/26 07:43:43;;;;;;;57.53;39.88;;;;;;;;;;4996672;28;20206;-86
2022/02/26 07:46:10;;;;;;;45.92;40.92;;;;;;;;;;5014134;28;20206;-86
2022/02/26 07:48:38;;;;;;;59.25;41.20;;;;;;;;;;5014045;28;20222;-85
2022/02/26 07:51:07;;;;;;;48.78;40.58;;;;;;;;;;5013963;28;20207;-85
2022/02/26 07:53:35;;;;;;;53.75;39.25;;;;;;;;;;4996521;28;20202;-86
2022/02/26 07:56:02;;;;;;;52.13;42.30;;;;;;;;;;4997052;28;20197;-86
2022/02/26 07:58:29;;;;;;;46.90;41.60;;;;;;;;;;5013976;28;20206;-86
2022/02/26 08:00:57;;;;;;;48.65;42.35;;;;;;;;;;4996427;28;20210;-84
2022/02/26 08:03:24;;;;;;;53.35;44.95;;;;;;;;;;5014059;28;20209;-87
2022/02/26 08:05:52;;;;;;;56.00;45.65;;;;;;;;;;5013490;28;20198;-89
2022/02/26 08:08:20;;;;;;;49.97;44.60;;;;;;;;;;5013403;28;20245;-89
2022/02/26 08:10:48;;;;;;;46.55;41.88;;;;;;;;;;4996742;28;20221;-88
2022/02/26 08:13:15;;;;;;;48.05;43.22;;;;;;;;;;4997532;28;20194;-88
2022/02/26 08:15:43;;;;;;;52.75;44.28;;;;;;;;;;5017648;28;20198;-87
2022/02/26 08:18:13;;;;;;;51.72;43.22;;;;;;;;;;5017584;28;20195;-86
2022/02/26 08:20:40;;;;;;;42.30;39.00;;;;;;;;;;5017621;28;20198;-87
2022/02/26 08:23:08;;;;;;;43.83;39.35;;;;;;;;;;5017192;28;20210;-87
2022/02/26 08:25:36;;;;;;;44.53;40.40;;;;;;;;;;5017373;28;20195;-87
2022/02/26 08:28:06;;;;;;;46.53;39.08;;;;;;;;;;5017033;28;20737;-87
2022/02/26 08:30:34;;;;;;;46.15;40.70;;;;;;;;;;5017111;28;20214;-87
2022/02/26 08:33:01;;;;;;;42.25;38.17;;;;;;;;;;5017032;28;20194;-88
2022/02/26 08:35:28;;;;;;;47.92;42.72;;;;;;;;;;4999490;28;20197;-90
2022/02/26 08:37:56;;;;;;;44.17;39.90;;;;;;;;;;5017018;28;20229;-84
2022/02/26 08:40:23;;;;;;;42.15;38.28;;;;;;;;;;5016898;28;20229;-88
2022/02/26 08:42:53;;;;;;;43.85;39.58;;;;;;;;;;4999502;28;20237;-89
2022/02/26 08:45:20;;;;;;;42.10;38.50;;;;;;;;;;4999766;28;20726;-89
2022/02/26 08:47:47;;;;;;;46.60;38.30;;;;;;;;;;5016581;28;20607;-89
2022/02/26 08:50:19;;;;;;;45.95;41.17;;;;;;;;;;5016988;28;20684;-89
2022/02/26 08:52:47;;;;;;;45.90;41.17;;;;;;;;;;5016725;28;20293;-89
2022/02/26 08:55:14;;;;;;;45.47;41.60;;;;;;;;;;5016842;28;20197;-90
2022/02/26 08:57:42;;;;;;;43.65;39.00;;;;;;;;;;5016988;28;20551;-90
2022/02/26 09:00:12;;;;;;;41.92;38.20;;;;;;;;;;5016746;28;20210;-89
2022/02/26 09:02:39;;;;;;;42.30;38.40;;;;;;;;;;5017075;28;20195;-89
2022/02/26 09:05:07;;;;;;;42.80;37.63;;;;;;;;;;4999054;28;20202;-89
2022/02/26 09:07:34;;;;;;;39.60;35.60;;;;;;;;;;5016389;28;20217;-89
2022/02/26 09:10:02;;;;;;;42.58;37.97;;;;;;;;;;5016649;28;20190;-89
2022/02/26 09:12:30;;;;;;;41.55;37.83;;;;;;;;;;5016516;28;20286;-89
2022/02/26 09:14:57;;;;;;;39.85;36.05;;;;;;;;;;4998729;28;20260;-89
2022/02/26 09:17:26;;;;;;;39.20;35.10;;;;;;;;;;5016343;28;20198;-89
2022/02/26 09:19:54;;;;;;;40.05;36.35;;;;;;;;;;4998799;28;20575;-89
2022/02/26 09:22:21;;;;;;;39.67;35.78;;;;;;;;;;5016452;28;20210;-89
2022/02/26 09:24:49;;;;;;;41.28;35.95;;;;;;;;;;5015984;28;20210;-88
2022/02/26 09:27:16;;;;;;;37.42;33.40;;;;;;;;;;5016420;28;20593;-89
2022/02/26 09:29:44;;;;;;;44.22;35.25;;;;;;;;;;4999103;28;20260;-89
2022/02/26 09:32:11;;;;;;;38.33;34.35;;;;;;;;;;4998611;28;20197;-89
2022/02/26 09:34:40;;;;;;;44.92;35.97;;;;;;;;;;5016037;28;20217;-87
2022/02/26 09:37:07;;;;;;;37.47;33.58;;;;;;;;;;4998386;28;20312;-89
2022/02/26 09:39:35;;;;;;;37.00;33.35;;;;;;;;;;5015710;28;20230;-88
2022/02/26 09:42:02;;;;;;;35.60;32.05;;;;;;;;;;5016470;28;20209;-88
2022/02/26 09:44:30;;;;;;;39.42;34.35;;;;;;;;;;5015693;28;20206;-89
2022/02/26 09:46:58;;;;;;;35.45;31.92;;;;;;;;;;4998345;28;20655;-88
2022/02/26 09:49:26;;;;;;;40.33;36.10;;;;;;;;;;5015794;28;20222;-88
2022/02/26 09:51:55;;;;;;;37.35;32.65;;;;;;;;;;5015802;28;20643;-89
2022/02/26 09:54:22;;;;;;;36.35;33.40;;;;;;;;;;5015846;28;20194;-88
2022/02/26 09:56:49;;;;;;;50.03;33.30;;;;;;;;;;5015836;28;20205;-88
2022/02/26 09:59:17;;;;;;;42.97;31.48;;;;;;;;;;5015715;28;20205;-88
2022/02/26 10:02:03;;;;;;;35.92;31.98;;;;;;;;;;5015945;28;20420;-88
2022/02/26 10:04:30;;;;;;;40.88;31.98;;;;;;;;;;4998122;28;20202;-88
2022/02/26 10:07:13;;;;;;;34.88;31.40;;;;;;;;;;5015387;28;20186;-88
2022/02/26 10:09:41;;;;;;;35.60;30.95;;;;;;;;;;4998018;28;20205;-88
2022/02/26 10:12:19;;;;;;;35.05;31.20;;;;;;;;;;5015809;28;20190;-89
2022/02/26 10:14:47;;;;;;;48.72;33.60;;;;;;;;;;5015728;28;20651;-88
2022/02/26 10:17:24;;;;;;;37.72;32.55;;;;;;;;;;5015410;28;20198;-88
2022/02/26 10:20:00;;;;;;;41.08;32.47;;;;;;;;;;5015156;28;20190;-88
2022/02/26 10:22:31;;;;;;;38.35;33.60;;;;;;;;;;5015166;28;20210;-87
2022/02/26 10:25:04;;;;;;;36.00;32.30;;;;;;;;;;5015219;28;20203;-88
2022/02/26 10:27:31;;;;;;;36.30;32.65;;;;;;;;;;5015094;28;20186;-87
2022/02/26 10:29:59;;;;;;;31.90;28.48;;;;;;;;;;5014902;28;20201;-88
2022/02/26 10:32:26;;;;;;;38.05;29.92;;;;;;;;;;4997961;28;20225;-87
2022/02/26 10:34:55;;;;;;;36.72;29.73;;;;;;;;;;5015129;28;20194;-88
2022/02/26 10:37:24;;;;;;;32.10;28.98;;;;;;;;;;5014460;28;20257;-88
2022/02/26 10:39:54;;;;;;;36.30;29.73;;;;;;;;;;5014810;28;20267;-87
2022/02/26 10:42:22;;;;;;;30.42;27.17;;;;;;;;;;5015116;28;20191;-88
2022/02/26 10:45:00;;;;;;;33.03;29.45;;;;;;;;;;5014751;28;20517;-88
2022/02/26 10:47:28;;;;;;;31.27;28.13;;;;;;;;;;5014521;28;20669;-88
2022/02/26 10:49:56;;;;;;;30.48;27.17;;;;;;;;;;4997324;28;20735;-87
2022/02/26 10:52:23;;;;;;;32.10;26.58;;;;;;;;;;4997515;28;20202;-88
2022/02/26 10:54:56;;;;;;;32.63;27.58;;;;;;;;;;5014957;28;20191;-88
2022/02/26 10:57:28;;;;;;;26.50;24.38;;;;;;;;;;5014999;28;20233;-88
2022/02/26 10:59:57;;;;;;;25.38;22.77;;;;;;;;;;4997553;28;20229;-88
2022/02/26 11:02:25;;;;;;;24.95;22.38;;;;;;;;;;5014720;28;20202;-88
2022/02/26 11:04:53;;;;;;;33.40;21.25;;;;;;;;;;5014777;28;20194;-88
2022/02/26 11:07:21;;;;;;;24.00;21.73;;;;;;;;;;5014534;28;20240;-87
2022/02/26 11:09:52;;;;;;;23.95;21.35;;;;;;;;;;5014212;28;20229;-87
2022/02/26 11:12:24;;;;;;;22.88;20.95;;;;;;;;;;5014280;28;20210;-88
2022/02/26 11:14:56;;;;;;;23.70;21.60;;;;;;;;;;5014668;28;20567;-87
2022/02/26 11:17:24;;;;;;;25.40;22.20;;;;;;;;;;5014443;28;20194;-88
2022/02/26 11:19:53;;;;;;;26.02;20.33;;;;;;;;;;5014169;28;20221;-88
2022/02/26 11:22:23;;;;;;;23.40;19.55;;;;;;;;;;5013707;28;20203;-88
2022/02/26 11:24:51;;;;;;;21.48;19.25;;;;;;;;;;5013805;28;20202;-87
2022/02/26 11:27:19;;;;;;;21.42;19.35;;;;;;;;;;4996286;28;20252;-88
2022/02/26 11:29:48;;;;;;;21.60;18.55;;;;;;;;;;5013769;28;20221;-87
2022/02/26 11:32:16;;;;;;;24.08;17.15;;;;;;;;;;4996656;28;20202;-88
2022/02/26 11:34:44;;;;;;;18.52;15.93;;;;;;;;;;4997292;28;20194;-87
2022/02/26 11:37:13;;;;;;;17.55;15.90;;;;;;;;;;5014349;28;20232;-87
2022/02/26 11:39:41;;;;;;;17.73;16.02;;;;;;;;;;5014217;28;20234;-87
2022/02/26 11:42:28;;;;;;;16.77;15.30;;;;;;;;;;5014676;28;20190;-86
2022/02/26 11:44:59;;;;;;;16.40;15.18;;;;;;;;;;5008023;28;20198;-86
2022/02/26 11:47:32;;;;;;;17.65;15.77;;;;;;;;;;5020110;28;20256;-87
2022/02/26 11:50:01;;;;;;;18.38;16.63;;;;;;;;;;5019646;28;20256;-87
2022/02/26 11:52:39;;;;;;;20.90;16.35;;;;;;;;;;5021822;28;20186;-86
2022/02/26 11:55:20;;;;;;;17.92;16.20;;;;;;;;;;5018437;28;20194;-86
2022/02/26 11:57:50;;;;;;;22.40;15.45;;;;;;;;;;5018255;28;20903;-86
2022/02/26 12:00:21;;;;;;;21.33;16.85;;;;;;;;;;5018220;28;20210;-86
2022/02/26 12:03:03;;;;;;;19.80;15.75;;;;;;;;;;5000647;28;20194;-86
2022/02/26 12:05:31;;;;;;;20.02;16.80;;;;;;;;;;5016999;28;20210;-86
2022/02/26 12:07:58;;;;;;;19.33;17.38;;;;;;;;;;5017534;28;20297;-87
2022/02/26 12:10:28;;;;;;;16.63;15.40;;;;;;;;;;5018025;28;20260;-86
2022/02/26 12:12:55;;;;;;;16.52;15.40;;;;;;;;;;5017617;28;20228;-87
2022/02/26 12:15:29;;;;;;;17.77;15.85;;;;;;;;;;5017652;28;20214;-86
2022/02/26 12:18:22;;;;;;;17.70;16.08;;;;;;;;;;5017606;28;20202;-87
2022/02/26 12:20:59;;;;;;;16.88;15.65;;;;;;;;;;5017404;28;20202;-86
2022/02/26 12:23:28;;;;;;;17.80;16.48;;;;;;;;;;5018220;28;20197;-87
2022/02/26 12:26:02;;;;;;;17.80;16.50;;;;;;;;;;5017535;28;20659;-86
2022/02/26 12:28:29;;;;;;;18.98;15.60;;;;;;;;;;5021750;28;20308;-86
2022/02/26 12:31:04;;;;;;;21.02;16.85;;;;;;;;;;5023797;28;20193;-85
2022/02/26 12:33:38;;;;;;;16.50;15.40;;;;;;;;;;5003686;28;20601;-85
2022/02/26 12:36:09;;;;;;;17.48;15.65;;;;;;;;;;5021994;28;20240;-83
2022/02/26 12:38:46;;;;;;;21.67;17.10;;;;;;;;;;5018815;28;20226;-83
2022/02/26 12:41:31;;;;;;;20.40;17.30;;;;;;;;;;5021013;28;20228;-83
2022/02/26 12:43:58;;;;;;;21.63;17.25;;;;;;;;;;5020173;28;20186;-84
2022/02/26 12:46:29;;;;;;;18.90;17.40;;;;;;;;;;5020801;28;20197;-83
2022/02/26 12:48:57;;;;;;;19.30;17.52;;;;;;;;;;5020957;28;20329;-83
2022/02/26 12:51:25;;;;;;;20.10;18.38;;;;;;;;;;5019153;28;20206;-83
2022/02/26 12:53:53;;;;;;;18.48;17.00;;;;;;;;;;5017419;28;20202;-83
2022/02/26 12:56:33;;;;;;;18.33;16.30;;;;;;;;;;5018318;28;20216;-83
2022/02/26 12:59:11;;;;;;;17.70;16.35;;;;;;;;;;5018846;28;20190;-83
2022/02/26 13:01:41;;;;;;;19.90;18.02;;;;;;;;;;5023383;28;20194;-92
2022/02/26 13:04:13;;;;;;;21.20;18.67;;;;;;;;;;5019546;28;20644;-92
2022/02/26 13:06:41;;;;;;;20.77;18.73;;;;;;;;;;5002024;28;20574;-93
2022/02/26 13:09:10;;;;;;;20.15;18.63;;;;;;;;;;5021075;28;20222;-94
2022/02/26 13:11:45;;;;;;;18.80;17.40;;;;;;;;;;5019645;28;20262;-96
2022/02/26 13:14:13;;;;;;;20.92;18.85;;;;;;;;;;5018421;28;20666;-96
2022/02/26 13:16:43;;;;;;;22.45;18.27;;;;;;;;;;5003913;28;20202;-95
2022/02/26 13:19:11;;;;;;;19.45;18.00;;;;;;;;;;5024815;28;20190;-95
2022/02/26 13:21:39;;;;;;;19.73;17.88;;;;;;;;;;5023370;28;20595;-96
2022/02/26 13:24:08;;;;;;;20.30;18.75;;;;;;;;;;5024024;28;20223;-94
2022/02/26 13:26:36;;;;;;;20.33;18.58;;;;;;;;;;5018457;28;20545;-92
2022/02/26 13:29:09;;;;;;;22.15;20.23;;;;;;;;;;5018758;28;20230;-94
2022/02/26 13:31:37;;;;;;;21.42;19.83;;;;;;;;;;5001269;28;20285;-94
2022/02/26 13:34:14;;;;;;;23.45;21.52;;;;;;;;;;5018086;28;20205;-93
2022/02/26 13:36:42;;;;;;;22.30;20.77;;;;;;;;;;5018258;28;20713;-95
2022/02/26 13:39:09;;;;;;;22.85;20.88;;;;;;;;;;5018861;28;20238;-93
2022/02/26 13:41:38;;;;;;;21.80;20.00;;;;;;;;;;5019238;28;20200;-94
2022/02/26 13:44:07;;;;;;;23.02;20.90;;;;;;;;;;5017546;28;20237;-94
2022/02/26 13:46:36;;;;;;;24.08;21.60;;;;;;;;;;5015846;28;20252;-93
2022/02/26 13:49:04;;;;;;;21.90;19.92;;;;;;;;;;5016119;28;20218;-92
2022/02/26 13:51:34;;;;;;;21.65;19.80;;;;;;;;;;5016033;28;20191;-92
2022/02/26 13:54:02;;;;;;;22.23;19.88;;;;;;;;;;5015623;28;20186;-92
2022/02/26 13:56:30;;;;;;;21.50;19.55;;;;;;;;;;5015677;28;20198;-92
2022/02/26 13:58:57;;;;;;;21.63;19.63;;;;;;;;;;5015953;28;20225;-92
2022/02/26 14:01:25;;;;;;;22.58;20.73;;;;;;;;;;5015809;28;20261;-93
2022/02/26 14:03:53;;;;;;;23.08;21.23;;;;;;;;;;4998297;28;20202;-92
2022/02/26 14:06:31;;;;;;;22.63;20.90;;;;;;;;;;5015984;28;20217;-92
2022/02/26 14:08:59;;;;;;;20.70;19.45;;;;;;;;;;4998303;28;20233;-90
2022/02/26 14:11:30;;;;;;;23.02;21.15;;;;;;;;;;5014531;28;20210;-87
2022/02/26 14:13:57;;;;;;;22.42;21.02;;;;;;;;;;5016633;28;20229;-93
2022/02/26 14:16:25;;;;;;;22.67;20.98;;;;;;;;;;4998626;28;20230;-92
2022/02/26 14:18:53;;;;;;;22.08;20.58;;;;;;;;;;5015884;28;20186;-91
2022/02/26 14:21:21;;;;;;;21.80;20.45;;;;;;;;;;5015634;28;20237;-90
2022/02/26 14:23:49;;;;;;;24.77;22.80;;;;;;;;;;5024410;28;20315;-91
2022/02/26 14:26:19;;;;;;;24.55;22.40;;;;;;;;;;5016396;28;20199;-91